sensor_id;sensor_type;location;lat;lon;timestamp;pressure;altitude;pressure_sealevel;temperature;humidity
38466;BME280;24244;51.950;5.902;2022-12-11T00:01:16;101091.69;;;2.32;83.31
38466;BME280;24244;51.950;5.902;2022-12-11T00:03:43;101089.19;;;2.30;83.22
38466;BME280;24244;51.950;5.902;2022-12-11T00:06:13;101093.72;;;2.28;83.32
38466;BME280;24244;51.950;5.902;2022-12-11T00:08:40;101086.69;;;2.29;83.27
38466;BME280;24244;51.950;5.902;2022-12-11T00:11:07;101092.31;;;2.24;83.61
38466;BME280;24244;51.950;5.902;2022-12-11T00:13:34;101082.66;;;2.25;84.03
38466;BME280;24244;51.950;5.902;2022-12-11T00:16:01;101081.81;;;2.24;83.57
38466;BME280;24244;51.950;5.902;2022-12-11T00:18:28;101094.81;;;2.26;83.78
38466;BME280;24244;51.950;5.902;2022-12-11T00:20:59;101088.72;;;2.25;83.61
38466;BME280;24244;51.950;5.902;2022-12-11T00:23:28;101087.78;;;2.26;83.76
38466;BME280;24244;51.950;5.902;2022-12-11T00:25:55;101091.25;;;2.27;83.82
38466;BME280;24244;51.950;5.902;2022-12-11T00:28:22;101086.94;;;2.26;84.21
38466;BME280;24244;51.950;5.902;2022-12-11T00:30:50;101093.88;;;2.27;83.73
38466;BME280;24244;51.950;5.902;2022-12-11T00:33:17;101086.78;;;2.27;83.82
38466;BME280;24244;51.950;5.902;2022-12-11T00:35:45;101082.38;;;2.28;83.65
38466;BME280;24244;51.950;5.902;2022-12-11T00:38:14;101092.88;;;2.28;84.12
38466;BME280;24244;51.950;5.902;2022-12-11T00:40:43;101094.66;;;2.27;84.22
38466;BME280;24244;51.950;5.902;2022-12-11T00:43:10;101090.41;;;2.26;83.95
38466;BME280;24244;51.950;5.902;2022-12-11T00:45:37;101092.88;;;2.28;83.90
38466;BME280;24244;51.950;5.902;2022-12-11T00:48:06;101091.25;;;2.27;83.94
38466;BME280;24244;51.950;5.902;2022-12-11T00:50:33;101092.75;;;2.29;83.80
38466;BME280;24244;51.950;5.902;2022-12-11T00:53:00;101090.97;;;2.30;83.68
38466;BME280;24244;51.950;5.902;2022-12-11T00:55:27;101086.56;;;2.30;83.69
38466;BME280;24244;51.950;5.902;2022-12-11T00:57:57;101083.81;;;2.32;83.88
38466;BME280;24244;51.950;5.902;2022-12-11T01:00:24;101084.66;;;2.32;83.68
38466;BME280;24244;51.950;5.902;2022-12-11T01:02:51;101082.88;;;2.33;83.88
38466;BME280;24244;51.950;5.902;2022-12-11T01:05:18;101073.06;;;2.35;83.93
38466;BME280;24244;51.950;5.902;2022-12-11T01:07:44;101072.38;;;2.33;83.81
38466;BME280;24244;51.950;5.902;2022-12-11T01:10:12;101074.03;;;2.34;83.91
38466;BME280;24244;51.950;5.902;2022-12-11T01:12:52;101071.41;;;2.34;83.71
38466;BME280;24244;51.950;5.902;2022-12-11T01:15:23;101068.91;;;2.32;83.65
38466;BME280;24244;51.950;5.902;2022-12-11T01:17:50;101071.53;;;2.32;83.85
38466;BME280;24244;51.950;5.902;2022-12-11T01:20:18;101062.84;;;2.32;84.10
38466;BME280;24244;51.950;5.902;2022-12-11T01:22:45;101068.19;;;2.30;83.57
38466;BME280;24244;51.950;5.902;2022-12-11T01:25:12;101071.66;;;2.31;83.66
38466;BME280;24244;51.950;5.902;2022-12-11T01:27:39;101068.91;;;2.32;83.97
38466;BME280;24244;51.950;5.902;2022-12-11T01:30:07;101066.19;;;2.34;84.25
38466;BME280;24244;51.950;5.902;2022-12-11T01:32:35;101061.88;;;2.33;83.73
38466;BME280;24244;51.950;5.902;2022-12-11T01:35:03;101062.84;;;2.32;83.87
38466;BME280;24244;51.950;5.902;2022-12-11T01:37:30;101067.13;;;2.33;84.28
38466;BME280;24244;51.950;5.902;2022-12-11T01:39:57;101059.50;;;2.30;84.09
38466;BME280;24244;51.950;5.902;2022-12-11T01:42:24;101063.78;;;2.31;84.27
38466;BME280;24244;51.950;5.902;2022-12-11T01:45:25;101056.88;;;2.30;84.09
38466;BME280;24244;51.950;5.902;2022-12-11T01:47:57;101056.88;;;2.30;84.17
38466;BME280;24244;51.950;5.902;2022-12-11T01:50:26;101054.38;;;2.28;84.05
38466;BME280;24244;51.950;5.902;2022-12-11T01:52:53;101053.53;;;2.28;84.05
38466;BME280;24244;51.950;5.902;2022-12-11T01:55:20;101057.84;;;2.29;84.12
38466;BME280;24244;51.950;5.902;2022-12-11T01:57:48;101058.66;;;2.29;83.84
38466;BME280;24244;51.950;5.902;2022-12-11T02:03:03;101063.06;;;2.29;83.98
38466;BME280;24244;51.950;5.902;2022-12-11T02:05:30;101063.06;;;2.29;83.81
38466;BME280;24244;51.950;5.902;2022-12-11T02:07:58;101063.06;;;2.29;84.37
38466;BME280;24244;51.950;5.902;2022-12-11T02:10:35;101070.00;;;2.30;84.07
38466;BME280;24244;51.950;5.902;2022-12-11T02:13:09;101063.91;;;2.29;84.13
38466;BME280;24244;51.950;5.902;2022-12-11T02:15:43;101067.25;;;2.31;83.88
38466;BME280;24244;51.950;5.902;2022-12-11T02:18:20;101066.28;;;2.32;83.94
38466;BME280;24244;51.950;5.902;2022-12-11T02:20:54;101066.41;;;2.31;84.00
38466;BME280;24244;51.950;5.902;2022-12-11T02:26:35;101055.81;;;2.32;83.98
38466;BME280;24244;51.950;5.902;2022-12-11T02:29:15;101052.47;;;2.30;83.91
38466;BME280;24244;51.950;5.902;2022-12-11T02:31:47;101054.25;;;2.30;84.47
38466;BME280;24244;51.950;5.902;2022-12-11T02:34:18;101047.34;;;2.29;83.91
38466;BME280;24244;51.950;5.902;2022-12-11T02:36:50;101048.06;;;2.31;84.04
38466;BME280;24244;51.950;5.902;2022-12-11T02:39:19;101050.78;;;2.29;84.42
38466;BME280;24244;51.950;5.902;2022-12-11T02:41:49;101050.78;;;2.29;84.32
38466;BME280;24244;51.950;5.902;2022-12-11T02:44:20;101052.47;;;2.30;84.25
38466;BME280;24244;51.950;5.902;2022-12-11T02:46:49;101053.19;;;2.32;84.58
38466;BME280;24244;51.950;5.902;2022-12-11T02:49:17;101055.69;;;2.34;84.59
38466;BME280;24244;51.950;5.902;2022-12-11T02:51:45;101042.69;;;2.32;84.03
38466;BME280;24244;51.950;5.902;2022-12-11T02:54:16;101040.91;;;2.33;84.00
38466;BME280;24244;51.950;5.902;2022-12-11T02:56:49;101038.41;;;2.31;84.67
38466;BME280;24244;51.950;5.902;2022-12-11T02:59:24;101038.28;;;2.33;84.49
38466;BME280;24244;51.950;5.902;2022-12-11T03:01:51;101046.28;;;2.31;84.65
38466;BME280;24244;51.950;5.902;2022-12-11T03:04:20;101047.09;;;2.32;84.21
38466;BME280;24244;51.950;5.902;2022-12-11T03:06:52;101034.09;;;2.30;84.45
38466;BME280;24244;51.950;5.902;2022-12-11T03:13:01;101034.22;;;2.29;84.38
38466;BME280;24244;51.950;5.902;2022-12-11T03:15:33;101029.81;;;2.29;84.69
38466;BME280;24244;51.950;5.902;2022-12-11T03:18:11;101027.19;;;2.29;84.83
38466;BME280;24244;51.950;5.902;2022-12-11T03:20:43;101024.56;;;2.29;84.69
38466;BME280;24244;51.950;5.902;2022-12-11T03:23:17;101025.41;;;2.30;84.56
38466;BME280;24244;51.950;5.902;2022-12-11T03:25:52;101027.19;;;2.29;84.26
38466;BME280;24244;51.950;5.902;2022-12-11T03:28:24;101028.84;;;2.30;84.73
38466;BME280;24244;51.950;5.902;2022-12-11T03:30:52;101034.00;;;2.32;84.45
38466;BME280;24244;51.950;5.902;2022-12-11T03:33:23;101032.19;;;2.32;84.74
38466;BME280;24244;51.950;5.902;2022-12-11T03:35:52;101029.47;;;2.34;84.39
38466;BME280;24244;51.950;5.902;2022-12-11T03:38:24;101030.25;;;2.34;84.75
38466;BME280;24244;51.950;5.902;2022-12-11T03:40:53;101027.50;;;2.36;84.72
38466;BME280;24244;51.950;5.902;2022-12-11T03:43:21;101030.84;;;2.38;84.54
38466;BME280;24244;51.950;5.902;2022-12-11T03:45:49;101029.91;;;2.39;84.25
38466;BME280;24244;51.950;5.902;2022-12-11T03:48:20;101025.38;;;2.41;84.67
38466;BME280;24244;51.950;5.902;2022-12-11T03:50:47;101031.28;;;2.43;84.61
38466;BME280;24244;51.950;5.902;2022-12-11T03:53:15;101031.19;;;2.45;84.38
38466;BME280;24244;51.950;5.902;2022-12-11T03:55:44;101020.69;;;2.45;84.07
38466;BME280;24244;51.950;5.902;2022-12-11T03:58:11;101014.47;;;2.46;84.32
38466;BME280;24244;51.950;5.902;2022-12-11T04:00:38;101014.47;;;2.46;84.69
38466;BME280;24244;51.950;5.902;2022-12-11T04:03:05;101017.09;;;2.46;84.41
38466;BME280;24244;51.950;5.902;2022-12-11T04:05:44;101016.28;;;2.45;84.71
38466;BME280;24244;51.950;5.902;2022-12-11T04:08:12;101018.78;;;2.47;84.35
38466;BME280;24244;51.950;5.902;2022-12-11T04:10:40;101009.94;;;2.48;84.11
38466;BME280;24244;51.950;5.902;2022-12-11T04:13:08;101015.03;;;2.49;84.07
38466;BME280;24244;51.950;5.902;2022-12-11T04:15:36;101013.41;;;2.48;84.10
38466;BME280;24244;51.950;5.902;2022-12-11T04:18:03;101008.97;;;2.49;84.42
38466;BME280;24244;51.950;5.902;2022-12-11T04:20:57;101003.72;;;2.49;84.15
38466;BME280;24244;51.950;5.902;2022-12-11T04:23:42;101008.97;;;2.49;84.15
38466;BME280;24244;51.950;5.902;2022-12-11T04:26:28;101015.88;;;2.50;84.36
38466;BME280;24244;51.950;5.902;2022-12-11T04:28:54;101003.59;;;2.50;84.38
38466;BME280;24244;51.950;5.902;2022-12-11T04:31:21;101003.47;;;2.52;84.61
38466;BME280;24244;51.950;5.902;2022-12-11T04:33:50;101006.94;;;2.52;84.53
38466;BME280;24244;51.950;5.902;2022-12-11T04:36:18;101001.44;;;2.55;84.36
38466;BME280;24244;51.950;5.902;2022-12-11T04:38:45;100995.34;;;2.55;84.35
38466;BME280;24244;51.950;5.902;2022-12-11T04:41:13;100997.00;;;2.56;83.95
38466;BME280;24244;51.950;5.902;2022-12-11T04:43:41;100997.81;;;2.56;84.04
38466;BME280;24244;51.950;5.902;2022-12-11T04:46:12;100991.75;;;2.56;84.41
38466;BME280;24244;51.950;5.902;2022-12-11T04:48:39;100997.81;;;2.56;84.00
38466;BME280;24244;51.950;5.902;2022-12-11T04:51:06;100994.25;;;2.57;84.29
38466;BME280;24244;51.950;5.902;2022-12-11T04:53:35;100989.00;;;2.57;83.91
38466;BME280;24244;51.950;5.902;2022-12-11T04:56:04;100990.66;;;2.58;84.17
38466;BME280;24244;51.950;5.902;2022-12-11T04:58:31;100991.50;;;2.59;83.95
38466;BME280;24244;51.950;5.902;2022-12-11T05:00:58;100990.53;;;2.60;84.13
38466;BME280;24244;51.950;5.902;2022-12-11T05:03:25;100993.16;;;2.60;84.05
38466;BME280;24244;51.950;5.902;2022-12-11T05:05:52;100994.00;;;2.60;83.91
38466;BME280;24244;51.950;5.902;2022-12-11T05:08:20;100995.66;;;2.61;84.32
38466;BME280;24244;51.950;5.902;2022-12-11T05:10:55;100996.63;;;2.60;84.45
38466;BME280;24244;51.950;5.902;2022-12-11T05:13:23;100997.56;;;2.59;84.17
38466;BME280;24244;51.950;5.902;2022-12-11T05:15:49;100999.38;;;2.59;83.86
38466;BME280;24244;51.950;5.902;2022-12-11T05:18:16;101002.81;;;2.59;84.59
38466;BME280;24244;51.950;5.902;2022-12-11T05:20:43;100997.69;;;2.58;84.50
38466;BME280;24244;51.950;5.902;2022-12-11T05:23:10;101002.81;;;2.59;84.29
38466;BME280;24244;51.950;5.902;2022-12-11T05:25:37;101009.75;;;2.60;84.32
38466;BME280;24244;51.950;5.902;2022-12-11T05:28:05;101000.91;;;2.61;84.18
38466;BME280;24244;51.950;5.902;2022-12-11T05:30:32;101004.09;;;2.65;84.41
38466;BME280;24244;51.950;5.902;2022-12-11T05:32:58;100999.69;;;2.65;84.32
38466;BME280;24244;51.950;5.902;2022-12-11T05:35:25;100996.22;;;2.65;83.95
38466;BME280;24244;51.950;5.902;2022-12-11T05:37:51;100997.91;;;2.66;84.03
38466;BME280;24244;51.950;5.902;2022-12-11T05:40:18;100993.47;;;2.66;84.04
38466;BME280;24244;51.950;5.902;2022-12-11T05:42:45;100998.59;;;2.68;84.13
38466;BME280;24244;51.950;5.902;2022-12-11T05:45:13;100994.19;;;2.68;83.90
38466;BME280;24244;51.950;5.902;2022-12-11T05:47:39;100996.81;;;2.68;84.12
38466;BME280;24244;51.950;5.902;2022-12-11T05:50:07;100995.03;;;2.69;83.88
38466;BME280;24244;51.950;5.902;2022-12-11T05:52:34;100995.97;;;2.68;84.24
38466;BME280;24244;51.950;5.902;2022-12-11T05:55:00;100998.59;;;2.68;84.21
38466;BME280;24244;51.950;5.902;2022-12-11T05:57:27;100990.72;;;2.68;84.39
38466;BME280;24244;51.950;5.902;2022-12-11T05:59:54;100984.66;;;2.67;84.42
38466;BME280;24244;51.950;5.902;2022-12-11T06:02:22;100991.56;;;2.68;83.98
38466;BME280;24244;51.950;5.902;2022-12-11T06:04:49;100972.38;;;2.68;83.81
38466;BME280;24244;51.950;5.902;2022-12-11T06:07:16;100981.06;;;2.68;84.16
38466;BME280;24244;51.950;5.902;2022-12-11T06:09:43;100970.56;;;2.68;83.86
38466;BME280;24244;51.950;5.902;2022-12-11T06:12:10;100969.75;;;2.68;84.18
38466;BME280;24244;51.950;5.902;2022-12-11T06:14:36;100966.28;;;2.67;84.11
38466;BME280;24244;51.950;5.902;2022-12-11T06:17:03;100964.38;;;2.69;83.93
38466;BME280;24244;51.950;5.902;2022-12-11T06:19:34;100974.88;;;2.69;84.31
38466;BME280;24244;51.950;5.902;2022-12-11T06:22:02;100969.75;;;2.68;84.38
38466;BME280;24244;51.950;5.902;2022-12-11T06:24:29;100967.25;;;2.66;84.11
38466;BME280;24244;51.950;5.902;2022-12-11T06:26:56;100973.44;;;2.65;84.06
38466;BME280;24244;51.950;5.902;2022-12-11T06:29:22;100967.34;;;2.65;83.99
38466;BME280;24244;51.950;5.902;2022-12-11T06:31:49;100965.56;;;2.65;84.31
38466;BME280;24244;51.950;5.902;2022-12-11T06:34:16;100967.25;;;2.66;84.05
38466;BME280;24244;51.950;5.902;2022-12-11T06:36:44;100977.72;;;2.66;84.11
38466;BME280;24244;51.950;5.902;2022-12-11T06:39:11;100973.44;;;2.65;83.97
38466;BME280;24244;51.950;5.902;2022-12-11T06:41:37;100982.16;;;2.66;83.78
38466;BME280;24244;51.950;5.902;2022-12-11T06:44:04;100986.56;;;2.65;84.12
38466;BME280;24244;51.950;5.902;2022-12-11T06:46:31;100988.22;;;2.66;84.10
38466;BME280;24244;51.950;5.902;2022-12-11T06:48:57;100981.31;;;2.65;84.15
38466;BME280;24244;51.950;5.902;2022-12-11T06:51:24;100989.19;;;2.65;84.43
38466;BME280;24244;51.950;5.902;2022-12-11T06:53:54;100989.31;;;2.64;84.35
38466;BME280;24244;51.950;5.902;2022-12-11T06:56:22;100988.63;;;2.62;84.19
38466;BME280;24244;51.950;5.902;2022-12-11T06:58:49;100993.16;;;2.60;84.22
38466;BME280;24244;51.950;5.902;2022-12-11T07:01:19;100995.91;;;2.58;84.17
38466;BME280;24244;51.950;5.902;2022-12-11T07:03:46;100994.25;;;2.57;83.88
38466;BME280;24244;51.950;5.902;2022-12-11T07:06:14;101003.91;;;2.57;84.08
38466;BME280;24244;51.950;5.902;2022-12-11T07:08:41;101005.84;;;2.55;84.46
38466;BME280;24244;51.950;5.902;2022-12-11T07:11:12;101003.34;;;2.53;84.21
38466;BME280;24244;51.950;5.902;2022-12-11T07:13:39;101000.00;;;2.51;84.59
38466;BME280;24244;51.950;5.902;2022-12-11T07:16:09;100998.47;;;2.49;84.22
38466;BME280;24244;51.950;5.902;2022-12-11T07:18:37;101008.97;;;2.49;84.65
38466;BME280;24244;51.950;5.902;2022-12-11T07:21:04;101007.31;;;2.48;83.79
38466;BME280;24244;51.950;5.902;2022-12-11T07:23:33;101003.03;;;2.47;84.61
38466;BME280;24244;51.950;5.902;2022-12-11T07:26:03;101012.56;;;2.48;84.53
38466;BME280;24244;51.950;5.902;2022-12-11T07:28:32;101014.34;;;2.47;84.09
38466;BME280;24244;51.950;5.902;2022-12-11T07:31:03;101009.13;;;2.47;84.14
38466;BME280;24244;51.950;5.902;2022-12-11T07:33:30;101013.53;;;2.47;83.90
38466;BME280;24244;51.950;5.902;2022-12-11T07:36:00;101018.78;;;2.47;83.85
38466;BME280;24244;51.950;5.902;2022-12-11T07:38:26;101021.28;;;2.48;83.99
38466;BME280;24244;51.950;5.902;2022-12-11T07:40:53;101020.44;;;2.48;84.09
38466;BME280;24244;51.950;5.902;2022-12-11T07:43:21;101012.69;;;2.46;84.44
38466;BME280;24244;51.950;5.902;2022-12-11T07:45:49;101008.28;;;2.47;84.26
38466;BME280;24244;51.950;5.902;2022-12-11T07:48:16;101010.78;;;2.48;83.77
38466;BME280;24244;51.950;5.902;2022-12-11T07:50:43;101014.91;;;2.51;84.23
38466;BME280;24244;51.950;5.902;2022-12-11T07:53:10;101003.59;;;2.50;83.91
38466;BME280;24244;51.950;5.902;2022-12-11T07:55:36;101005.25;;;2.51;83.81
38466;BME280;24244;51.950;5.902;2022-12-11T07:58:05;101021.00;;;2.51;83.81
38466;BME280;24244;51.950;5.902;2022-12-11T08:00:31;101019.22;;;2.52;83.90
38466;BME280;24244;51.950;5.902;2022-12-11T08:02:59;101018.66;;;2.48;83.68
38466;BME280;24244;51.950;5.902;2022-12-11T08:05:26;101027.47;;;2.47;83.64
38466;BME280;24244;51.950;5.902;2022-12-11T08:07:53;101012.94;;;2.43;83.79
38466;BME280;24244;51.950;5.902;2022-12-11T08:10:20;101025.22;;;2.43;84.02
38466;BME280;24244;51.950;5.902;2022-12-11T08:12:48;101024.38;;;2.42;84.06
38466;BME280;24244;51.950;5.902;2022-12-11T08:15:15;101025.94;;;2.45;84.21
38466;BME280;24244;51.950;5.902;2022-12-11T08:17:41;101022.47;;;2.44;84.07
38466;BME280;24244;51.950;5.902;2022-12-11T08:20:10;101030.34;;;2.44;83.68
38466;BME280;24244;51.950;5.902;2022-12-11T08:22:36;101026.06;;;2.43;83.93
38466;BME280;24244;51.950;5.902;2022-12-11T08:25:04;101024.38;;;2.42;84.16
38466;BME280;24244;51.950;5.902;2022-12-11T08:27:31;101031.19;;;2.45;83.73
38466;BME280;24244;51.950;5.902;2022-12-11T08:29:57;101029.50;;;2.44;83.94
38466;BME280;24244;51.950;5.902;2022-12-11T08:32:24;101026.88;;;2.44;83.77
38466;BME280;24244;51.950;5.902;2022-12-11T08:34:51;101026.16;;;2.42;84.26
38466;BME280;24244;51.950;5.902;2022-12-11T08:37:19;101023.53;;;2.42;83.95
38466;BME280;24244;51.950;5.902;2022-12-11T08:39:46;101027.00;;;2.42;83.86
38466;BME280;24244;51.950;5.902;2022-12-11T08:42:12;101021.63;;;2.44;83.80
38466;BME280;24244;51.950;5.902;2022-12-11T08:44:39;101022.59;;;2.43;83.83
38466;BME280;24244;51.950;5.902;2022-12-11T08:47:06;101018.19;;;2.43;83.66
38466;BME280;24244;51.950;5.902;2022-12-11T08:49:35;101018.31;;;2.42;84.18
38466;BME280;24244;51.950;5.902;2022-12-11T08:52:03;101014.03;;;2.41;83.80
38466;BME280;24244;51.950;5.902;2022-12-11T08:54:31;101004.38;;;2.41;83.77
38466;BME280;24244;51.950;5.902;2022-12-11T08:56:58;101006.16;;;2.41;83.91
38466;BME280;24244;51.950;5.902;2022-12-11T08:59:24;101005.19;;;2.42;84.01
38466;BME280;24244;51.950;5.902;2022-12-11T09:01:51;101005.06;;;2.43;83.81
38466;BME280;24244;51.950;5.902;2022-12-11T09:04:19;100997.06;;;2.45;84.05
38466;BME280;24244;51.950;5.902;2022-12-11T09:06:46;101000.41;;;2.47;83.81
38466;BME280;24244;51.950;5.902;2022-12-11T09:09:13;101003.72;;;2.49;84.09
38466;BME280;24244;51.950;5.902;2022-12-11T09:11:41;100998.34;;;2.50;83.53
38466;BME280;24244;51.950;5.902;2022-12-11T09:14:08;101006.09;;;2.52;83.43
38466;BME280;24244;51.950;5.902;2022-12-11T09:16:37;101000.84;;;2.52;83.54
38466;BME280;24244;51.950;5.902;2022-12-11T09:19:06;100996.31;;;2.54;83.30
38466;BME280;24244;51.950;5.902;2022-12-11T09:21:34;100997.16;;;2.54;83.71
38466;BME280;24244;51.950;5.902;2022-12-11T09:24:00;101001.44;;;2.55;83.38
38466;BME280;24244;51.950;5.902;2022-12-11T09:26:28;101003.06;;;2.56;83.34
38466;BME280;24244;51.950;5.902;2022-12-11T09:28:57;100998.66;;;2.57;83.18
38466;BME280;24244;51.950;5.902;2022-12-11T09:31:26;101001.28;;;2.57;83.32
38466;BME280;24244;51.950;5.902;2022-12-11T09:33:55;101001.28;;;2.57;83.84
38466;BME280;24244;51.950;5.902;2022-12-11T09:36:23;100995.91;;;2.58;83.75
38466;BME280;24244;51.950;5.902;2022-12-11T09:38:49;100996.75;;;2.59;83.40
38466;BME280;24244;51.950;5.902;2022-12-11T09:41:38;101000.91;;;2.61;83.31
38466;BME280;24244;51.950;5.902;2022-12-11T09:44:20;101008.66;;;2.63;83.46
38466;BME280;24244;51.950;5.902;2022-12-11T09:46:49;101002.59;;;2.62;83.28
38466;BME280;24244;51.950;5.902;2022-12-11T09:49:27;100998.97;;;2.63;83.78
38466;BME280;24244;51.950;5.902;2022-12-11T09:52:07;101001.34;;;2.66;83.55
38466;BME280;24244;51.950;5.902;2022-12-11T09:54:40;100996.09;;;2.66;83.24
38466;BME280;24244;51.950;5.902;2022-12-11T09:57:14;100987.41;;;2.66;83.65
38466;BME280;24244;51.950;5.902;2022-12-11T09:59:54;100988.22;;;2.66;83.59
38466;BME280;24244;51.950;5.902;2022-12-11T10:02:40;100988.22;;;2.66;83.05
38466;BME280;24244;51.950;5.902;2022-12-11T10:05:18;100986.44;;;2.67;83.16
38466;BME280;24244;51.950;5.902;2022-12-11T10:07:50;100984.66;;;2.67;83.35
38466;BME280;24244;51.950;5.902;2022-12-11T10:10:25;100984.66;;;2.67;82.99
38466;BME280;24244;51.950;5.902;2022-12-11T10:13:02;100982.72;;;2.69;83.27
38466;BME280;24244;51.950;5.902;2022-12-11T10:15:37;100981.63;;;2.72;83.26
38466;BME280;24244;51.950;5.902;2022-12-11T10:18:11;100984.97;;;2.74;83.63
38466;BME280;24244;51.950;5.902;2022-12-11T10:20:40;100980.53;;;2.74;83.07
38466;BME280;24244;51.950;5.902;2022-12-11T10:23:15;100981.25;;;2.77;82.93
38466;BME280;24244;51.950;5.902;2022-12-11T10:25:45;100971.72;;;2.75;83.43
38466;BME280;24244;51.950;5.902;2022-12-11T10:28:17;100981.09;;;2.78;82.93
38466;BME280;24244;51.950;5.902;2022-12-11T10:30:49;100982.75;;;2.79;83.36
38466;BME280;24244;51.950;5.902;2022-12-11T10:33:20;100973.09;;;2.80;83.26
38466;BME280;24244;51.950;5.902;2022-12-11T10:35:50;100972.25;;;2.79;82.90
38466;BME280;24244;51.950;5.902;2022-12-11T10:38:21;100971.19;;;2.82;83.26
38466;BME280;24244;51.950;5.902;2022-12-11T10:40:51;100973.53;;;2.85;83.30
38466;BME280;24244;51.950;5.902;2022-12-11T10:43:18;100969.13;;;2.85;83.10
38466;BME280;24244;51.950;5.902;2022-12-11T10:45:53;100962.06;;;2.86;82.84
38466;BME280;24244;51.950;5.902;2022-12-11T10:48:20;100968.16;;;2.86;82.73
38466;BME280;24244;51.950;5.902;2022-12-11T10:50:57;100969.00;;;2.87;82.74
38466;BME280;24244;51.950;5.902;2022-12-11T10:53:26;100958.38;;;2.88;83.23
38466;BME280;24244;51.950;5.902;2022-12-11T10:55:54;100961.00;;;2.88;83.25
38466;BME280;24244;51.950;5.902;2022-12-11T10:58:25;100958.38;;;2.88;82.85
38466;BME280;24244;51.950;5.902;2022-12-11T11:01:04;100963.63;;;2.88;83.20
38466;BME280;24244;51.950;5.902;2022-12-11T11:03:33;100961.00;;;2.88;82.91
38466;BME280;24244;51.950;5.902;2022-12-11T11:06:05;100960.03;;;2.89;83.23
38466;BME280;24244;51.950;5.902;2022-12-11T11:08:40;100958.25;;;2.90;83.06
38466;BME280;24244;51.950;5.902;2022-12-11T11:11:20;100956.28;;;2.92;82.95
38466;BME280;24244;51.950;5.902;2022-12-11T11:13:47;100957.13;;;2.92;82.69
38466;BME280;24244;51.950;5.902;2022-12-11T11:16:18;100955.31;;;2.93;82.69
38466;BME280;24244;51.950;5.902;2022-12-11T11:18:51;100957.13;;;2.92;82.95
38466;BME280;24244;51.950;5.902;2022-12-11T11:21:21;100957.97;;;2.93;82.95
38466;BME280;24244;51.950;5.902;2022-12-11T11:23:49;100949.94;;;2.94;82.76
38466;BME280;24244;51.950;5.902;2022-12-11T11:26:20;100946.38;;;2.95;82.69
38466;BME280;24244;51.950;5.902;2022-12-11T11:28:50;100945.28;;;2.98;82.65
38466;BME280;24244;51.950;5.902;2022-12-11T11:31:21;100947.63;;;3.01;82.81
38466;BME280;24244;51.950;5.902;2022-12-11T11:33:59;100951.91;;;3.02;82.88
38466;BME280;24244;51.950;5.902;2022-12-11T11:36:31;100938.91;;;3.00;82.61
38466;BME280;24244;51.950;5.902;2022-12-11T11:39:17;100946.66;;;3.02;82.75
38466;BME280;24244;51.950;5.902;2022-12-11T11:41:49;100947.50;;;3.02;82.81
38466;BME280;24244;51.950;5.902;2022-12-11T11:44:23;100945.97;;;3.00;82.64
38466;BME280;24244;51.950;5.902;2022-12-11T11:46:58;100952.88;;;3.01;82.42
38466;BME280;24244;51.950;5.902;2022-12-11T11:49:36;100935.34;;;3.01;82.80
38466;BME280;24244;51.950;5.902;2022-12-11T11:52:11;100929.53;;;2.98;82.85
38466;BME280;24244;51.950;5.902;2022-12-11T11:54:47;100927.56;;;3.00;82.97
38466;BME280;24244;51.950;5.902;2022-12-11T11:57:22;100935.63;;;2.98;82.68
38466;BME280;24244;51.950;5.902;2022-12-11T11:59:55;100924.28;;;2.98;82.63
38466;BME280;24244;51.950;5.902;2022-12-11T12:02:25;100924.84;;;3.01;82.82
38466;BME280;24244;51.950;5.902;2022-12-11T12:04:52;100924.00;;;3.01;82.58
38466;BME280;24244;51.950;5.902;2022-12-11T12:07:29;100924.13;;;2.99;82.96
38466;BME280;24244;51.950;5.902;2022-12-11T12:10:12;100924.28;;;2.98;82.87
38466;BME280;24244;51.950;5.902;2022-12-11T12:12:47;100928.41;;;3.00;82.74
38466;BME280;24244;51.950;5.902;2022-12-11T12:15:28;100930.22;;;3.00;82.72
38466;BME280;24244;51.950;5.902;2022-12-11T12:18:07;100915.41;;;2.99;82.76
38466;BME280;24244;51.950;5.902;2022-12-11T12:20:42;100918.03;;;2.99;82.97
38466;BME280;24244;51.950;5.902;2022-12-11T12:23:24;100913.63;;;2.99;82.78
38466;BME280;24244;51.950;5.902;2022-12-11T12:26:07;100915.16;;;3.02;82.64
38466;BME280;24244;51.950;5.902;2022-12-11T12:28:43;100911.56;;;3.03;82.75
38466;BME280;24244;51.950;5.902;2022-12-11T12:31:24;100913.50;;;3.01;82.67
38466;BME280;24244;51.950;5.902;2022-12-11T12:34:04;100916.00;;;3.02;82.77
38466;BME280;24244;51.950;5.902;2022-12-11T12:36:41;100915.16;;;3.02;82.81
38466;BME280;24244;51.950;5.902;2022-12-11T12:39:16;100906.56;;;3.00;82.70
38466;BME280;24244;51.950;5.902;2022-12-11T12:41:49;100907.41;;;3.00;82.86
38466;BME280;24244;51.950;5.902;2022-12-11T12:44:22;100917.06;;;3.00;82.92
38466;BME280;24244;51.950;5.902;2022-12-11T12:46:57;100913.50;;;3.01;82.31
38466;BME280;24244;51.950;5.902;2022-12-11T12:49:33;100909.06;;;3.01;82.87
38466;BME280;24244;51.950;5.902;2022-12-11T12:52:02;100912.66;;;3.00;82.84
38466;BME280;24244;51.950;5.902;2022-12-11T12:54:31;100911.16;;;2.98;82.29
38466;BME280;24244;51.950;5.902;2022-12-11T12:57:01;100910.31;;;2.97;82.54
38466;BME280;24244;51.950;5.902;2022-12-11T12:59:31;100916.53;;;2.96;82.32
38466;BME280;24244;51.950;5.902;2022-12-11T13:02:01;100919.69;;;3.00;82.64
38466;BME280;24244;51.950;5.902;2022-12-11T13:04:38;100922.19;;;3.01;82.42
38466;BME280;24244;51.950;5.902;2022-12-11T13:07:25;100915.03;;;3.03;82.83
38466;BME280;24244;51.950;5.902;2022-12-11T13:10:00;100911.56;;;3.03;82.28
38466;BME280;24244;51.950;5.902;2022-12-11T13:12:32;100908.94;;;3.03;82.52
38466;BME280;24244;51.950;5.902;2022-12-11T13:15:00;100916.00;;;3.02;82.41
38466;BME280;24244;51.950;5.902;2022-12-11T13:17:36;100916.81;;;3.03;82.62
38466;BME280;24244;51.950;5.902;2022-12-11T13:20:14;100909.91;;;3.02;82.11
38466;BME280;24244;51.950;5.902;2022-12-11T13:22:52;100916.81;;;3.03;82.43
38466;BME280;24244;51.950;5.902;2022-12-11T13:25:24;100913.25;;;3.04;82.66